Time;durP1;ratioP1;P1;durP2;ratioP2;P2;SDS_P1;SDS_P2;PMS_P1;PMS_P2;Temp;Humidity;BMP_temperature;BMP_pressure;BME280_temperature;BME280_humidity;BME280_pressure;Samples;Min_cycle;Max_cycle;Signal;HPM_P1;HPM_P2
2022/05/04 00:02:16;;;;;;;;;30.33;25.67;;;;;14.42;53.40;101629.63;4980503;28;62208;-65
2022/05/04 00:04:41;;;;;;;;;35.33;28.33;;;;;14.41;53.67;101619.88;4979463;28;62855;-65
2022/05/04 00:07:07;;;;;;;;;28.00;25.00;;;;;14.35;53.55;101610.34;4980970;28;45289;-65
2022/05/04 00:09:32;;;;;;;;;29.00;27.33;;;;;14.34;53.86;101610.41;4980195;28;60963;-66
2022/05/04 00:11:57;;;;;;;;;26.67;25.00;;;;;14.32;54.18;101609.66;4972565;28;59458;-65
2022/05/04 00:14:25;;;;;;;;;31.67;29.00;;;;;14.30;53.94;101615.09;4979730;28;65529;-65
2022/05/04 00:16:51;;;;;;;;;29.33;27.67;;;;;14.27;55.03;101611.69;4963315;28;45432;-65
2022/05/04 00:19:17;;;;;;;;;30.33;26.33;;;;;14.23;53.82;101605.63;4980311;28;45347;-65
2022/05/04 00:21:42;;;;;;;;;30.67;27.67;;;;;14.23;53.87;101601.16;4979168;28;59755;-65
2022/05/04 00:24:07;;;;;;;;;32.67;29.67;;;;;14.27;53.82;101601.00;4980173;28;65602;-65
2022/05/04 00:26:33;;;;;;;;;28.33;25.33;;;;;14.28;53.70;101598.25;4979710;28;51726;-65
2022/05/04 00:28:58;;;;;;;;;25.33;25.00;;;;;14.30;53.71;101592.81;4981594;28;58181;-65
2022/05/04 00:31:24;;;;;;;;;30.67;28.00;;;;;14.31;53.80;101584.69;4980239;28;45611;-65
2022/05/04 00:33:49;;;;;;;;;32.33;26.33;;;;;14.30;53.64;101590.13;4979514;28;63036;-65
2022/05/04 00:36:14;;;;;;;;;33.00;29.67;;;;;14.29;53.91;101593.75;4979861;28;45394;-66
2022/05/04 00:38:40;;;;;;;;;31.67;29.33;;;;;14.25;53.89;101593.06;4980374;28;45941;-65
2022/05/04 00:41:05;;;;;;;;;29.33;27.00;;;;;14.21;53.94;101587.00;4979481;28;59681;-65
2022/05/04 00:43:30;;;;;;;;;30.33;25.33;;;;;14.21;54.02;101597.69;4979145;28;65879;-65
2022/05/04 00:45:56;;;;;;;;;37.33;29.00;;;;;14.13;54.71;101593.69;4978761;28;62155;-65
2022/05/04 00:48:21;;;;;;;;;30.67;26.67;;;;;14.02;54.46;101589.75;4978219;28;60128;-65
2022/05/04 00:50:47;;;;;;;;;36.33;27.67;;;;;13.97;54.64;101593.63;4979624;28;45429;-65
2022/05/04 00:53:13;;;;;;;;;32.00;26.67;;;;;13.93;54.48;101584.03;4962522;28;45521;-65
2022/05/04 00:55:38;;;;;;;;;31.00;27.67;;;;;13.92;54.46;101591.19;4979761;28;45319;-65
2022/05/04 01:00:48;;;;;;;;;32.67;27.00;;;;;13.94;54.74;101600.00;4979757;28;45521;-65
2022/05/04 01:03:14;;;;;;;;;31.33;24.33;;;;;13.95;54.39;101601.75;4979729;28;45453;-65
2022/05/04 01:05:39;;;;;;;;;26.33;19.67;;;;;13.95;54.56;101599.06;4979838;28;45687;-65
2022/05/04 01:08:05;;;;;;;;;28.00;22.00;;;;;13.96;54.31;101594.56;4979064;28;60324;-65
2022/05/04 01:10:30;;;;;;;;;31.00;25.67;;;;;13.97;54.39;101607.00;4980240;28;45431;-65
2022/05/04 01:12:56;;;;;;;;;35.67;29.33;;;;;13.93;54.59;101603.63;4978191;28;45394;-65
2022/05/04 01:15:22;;;;;;;;;38.00;30.00;;;;;13.89;54.43;101600.22;4974469;28;45388;-65
2022/05/04 01:17:48;;;;;;;;;30.67;25.33;;;;;13.90;54.37;101603.78;4961520;28;45437;-65
2022/05/04 01:20:13;;;;;;;;;29.33;26.67;;;;;13.88;54.52;101592.28;4979873;28;45223;-65
2022/05/04 01:22:39;;;;;;;;;29.00;27.67;;;;;13.80;55.53;101600.69;4979486;28;45330;-65
2022/05/04 01:25:04;;;;;;;;;29.33;26.00;;;;;13.70;56.20;101600.31;4979412;28;45410;-65
2022/05/04 01:27:30;;;;;;;;;30.00;25.33;;;;;13.61;56.07;101595.44;4980751;28;45409;-65
2022/05/04 01:29:55;;;;;;;;;27.33;23.33;;;;;13.54;55.79;101599.34;4979221;28;45366;-65
2022/05/04 01:32:21;;;;;;;;;27.33;26.33;;;;;13.50;55.54;101597.78;4979402;28;46024;-65
2022/05/04 01:34:46;;;;;;;;;31.67;29.33;;;;;13.48;55.75;101602.31;4978636;28;61668;-65
2022/05/04 01:37:11;;;;;;;;;27.00;23.67;;;;;13.50;55.54;101603.97;4978769;28;58541;-65
2022/05/04 01:39:37;;;;;;;;;27.67;25.00;;;;;13.55;55.25;101601.09;4978761;28;61021;-65
2022/05/04 01:42:02;;;;;;;;;33.00;29.00;;;;;13.59;55.34;101605.31;4977648;28;65376;-65
2022/05/04 01:44:31;;;;;;;;;26.00;25.67;;;;;13.62;55.19;101598.97;4978039;28;45878;-65
2022/05/04 01:46:56;;;;;;;;;31.33;28.00;;;;;13.64;55.19;101603.28;4978261;28;45306;-65
2022/05/04 01:49:22;;;;;;;;;29.33;25.67;;;;;13.68;55.16;101601.34;4971650;28;45601;-64
2022/05/04 01:51:47;;;;;;;;;38.67;30.33;;;;;13.75;54.96;101599.22;4973254;28;63378;-66
2022/05/04 01:54:13;;;;;;;;;28.67;25.00;;;;;13.76;54.93;101596.47;4972682;28;63397;-66
2022/05/04 01:56:38;;;;;;;;;26.67;26.00;;;;;13.79;55.06;101598.13;4972974;28;45363;-65
2022/05/04 01:59:03;;;;;;;;;31.00;27.33;;;;;13.83;55.08;101599.69;4974855;28;45206;-65
2022/05/04 02:01:29;;;;;;;;;27.67;26.33;;;;;13.86;55.05;101600.41;4973346;28;46115;-65
2022/05/04 02:03:54;;;;;;;;;39.33;30.00;;;;;13.89;55.22;101600.22;4957457;28;45367;-65
2022/05/04 02:06:20;;;;;;;;;25.33;22.00;;;;;13.89;55.13;101597.56;4979517;28;57924;-66
2022/05/04 02:08:45;;;;;;;;;31.67;28.00;;;;;13.86;54.69;101588.84;4982322;28;45370;-65
2022/05/04 02:11:11;;;;;;;;;27.00;25.00;;;;;13.87;54.39;101590.56;4982507;28;47025;-65
2022/05/04 02:13:36;;;;;;;;;30.67;26.33;;;;;13.86;54.24;101592.38;4972311;28;45428;-66
2022/05/04 02:16:02;;;;;;;;;30.00;27.00;;;;;13.84;54.62;101596.91;4976198;28;45530;-65
2022/05/04 02:18:27;;;;;;;;;35.00;28.00;;;;;13.80;54.59;101592.69;4978583;28;45422;-65
2022/05/04 02:20:52;;;;;;;;;34.67;28.67;;;;;13.77;54.82;101590.19;4978715;28;66597;-65
2022/05/04 02:23:18;;;;;;;;;32.67;27.33;;;;;13.68;55.10;101583.47;4982382;28;45388;-66
2022/05/04 02:25:43;;;;;;;;;34.33;29.33;;;;;13.60;54.84;101595.50;4982219;28;45322;-66
2022/05/04 02:28:09;;;;;;;;;36.33;30.00;;;;;13.55;54.88;101593.06;4984644;28;45279;-65
2022/05/04 02:30:34;;;;;;;;;29.67;28.67;;;;;13.51;55.12;101587.00;4982230;28;45854;-65
2022/05/04 02:32:59;;;;;;;;;27.00;25.00;;;;;13.49;55.08;101585.34;4981115;28;60144;-65
2022/05/04 02:38:09;;;;;;;;;35.67;28.67;;;;;13.47;55.55;101589.91;4982391;28;45481;-65
2022/05/04 02:40:34;;;;;;;;;33.00;26.33;;;;;13.44;55.44;101590.94;4982103;28;45891;-65
2022/05/04 02:43:01;;;;;;;;;27.33;26.33;;;;;13.40;55.44;101592.00;4981224;28;45436;-65
2022/05/04 02:45:26;;;;;;;;;34.00;30.33;;;;;13.37;55.36;101593.03;4982289;28;45216;-65
2022/05/04 02:47:52;;;;;;;;;26.67;25.00;;;;;13.33;55.40;101587.88;4974607;28;45369;-66
2022/05/04 02:50:17;;;;;;;;;33.67;30.33;;;;;13.32;55.30;101588.81;4974984;28;45356;-65
2022/05/04 02:52:43;;;;;;;;;36.67;28.67;;;;;13.31;55.33;101576.41;4981094;28;45548;-65
2022/05/04 02:55:08;;;;;;;;;31.00;29.00;;;;;13.32;55.43;101580.81;4980831;28;45449;-65
2022/05/04 02:57:33;;;;;;;;;37.00;30.33;;;;;13.33;55.57;101586.06;4958788;28;45393;-65
2022/05/04 02:59:59;;;;;;;;;36.67;28.33;;;;;13.33;55.51;101578.06;4980734;28;64890;-65
2022/05/04 03:02:27;;;;;;;;;34.00;30.00;;;;;13.34;55.52;101587.81;4981201;28;63044;-65
2022/05/04 03:04:56;;;;;;;;;33.67;29.67;;;;;13.36;55.39;101588.66;4981296;28;45341;-65
2022/05/04 03:07:22;;;;;;;;;34.33;30.67;;;;;13.33;55.46;101578.06;4981772;28;45460;-65
2022/05/04 03:09:47;;;;;;;;;30.33;25.67;;;;;13.35;55.39;101586.00;4980925;28;46125;-65
2022/05/04 03:12:12;;;;;;;;;34.00;28.00;;;;;13.36;55.49;101579.72;4981292;28;45492;-65
2022/05/04 03:14:38;;;;;;;;;32.67;29.67;;;;;13.37;55.33;101573.47;4981576;28;45307;-65
2022/05/04 03:17:04;;;;;;;;;29.33;25.00;;;;;13.36;55.30;101577.03;4981003;28;45493;-65
2022/05/04 03:19:29;;;;;;;;;35.33;28.67;;;;;13.36;55.44;101569.03;4980554;28;45369;-65
2022/05/04 03:21:54;;;;;;;;;33.00;30.00;;;;;13.31;55.56;101566.59;4980474;28;61080;-65
2022/05/04 03:24:20;;;;;;;;;40.67;31.00;;;;;13.28;55.61;101573.88;4980863;28;60991;-65
2022/05/04 03:26:45;;;;;;;;;39.67;30.33;;;;;13.28;55.33;101576.56;4980486;28;54549;-65
2022/05/04 03:29:11;;;;;;;;;42.67;35.00;;;;;13.24;55.42;101576.72;4975189;28;66646;-65
2022/05/04 03:31:36;;;;;;;;;30.67;29.67;;;;;13.24;55.64;101568.72;4980727;28;65419;-65
2022/05/04 03:34:02;;;;;;;;;32.00;29.00;;;;;13.26;55.28;101573.09;4980801;28;45302;-65
2022/05/04 03:36:27;;;;;;;;;39.00;31.33;;;;;13.28;55.61;101571.22;4981441;28;45366;-65
2022/05/04 03:38:53;;;;;;;;;32.00;28.67;;;;;13.28;55.63;101572.06;4980056;28;63266;-65
2022/05/04 03:41:18;;;;;;;;;32.67;30.00;;;;;13.28;55.50;101573.88;4980626;28;59211;-66
2022/05/04 03:43:44;;;;;;;;;33.33;30.33;;;;;13.28;55.51;101569.41;4980419;28;45674;-65
2022/05/04 03:46:16;;;;;;;;;37.67;32.33;;;;;13.27;55.32;101569.47;4981184;28;45514;-65
2022/05/04 03:48:42;;;;;;;;;31.33;30.33;;;;;13.24;55.48;101568.72;4980275;28;46199;-65
2022/05/04 03:51:09;;;;;;;;;36.33;29.33;;;;;13.25;55.34;101572.22;4980843;28;45553;-65
2022/05/04 03:53:34;;;;;;;;;35.00;27.33;;;;;13.27;55.90;101567.69;4980928;28;45375;-65
2022/05/04 03:56:00;;;;;;;;;39.00;30.33;;;;;13.22;55.75;101564.38;4980459;28;45539;-65
2022/05/04 03:58:25;;;;;;;;;30.33;28.67;;;;;13.14;55.61;101564.75;4979747;28;66551;-65
2022/05/04 04:00:50;;;;;;;;;36.00;29.33;;;;;13.11;55.62;101554.19;4980422;28;45251;-65
2022/05/04 04:03:16;;;;;;;;;32.67;30.33;;;;;13.10;55.67;101557.81;4980378;28;60636;-65
2022/05/04 04:05:41;;;;;;;;;39.00;31.33;;;;;13.05;55.84;101560.72;4980469;28;45365;-65
2022/05/04 04:08:07;;;;;;;;;35.33;29.00;;;;;13.02;56.01;101555.53;4979931;28;63188;-66
2022/05/04 04:10:32;;;;;;;;;41.00;29.33;;;;;12.98;55.81;101555.75;4980691;28;45444;-65
2022/05/04 04:12:58;;;;;;;;;34.67;31.33;;;;;12.95;55.91;101564.75;4979208;28;60455;-65
2022/05/04 04:15:23;;;;;;;;;31.00;28.00;;;;;12.93;55.90;101565.78;4980777;28;45360;-65
2022/05/04 04:17:48;;;;;;;;;35.67;30.33;;;;;12.88;55.60;101563.31;4979482;28;63740;-65
2022/05/04 04:22:58;;;;;;;;;31.00;27.67;;;;;12.78;55.83;101575.38;4976404;28;45304;-65
2022/05/04 04:25:23;;;;;;;;;35.67;30.00;;;;;12.67;56.45;101576.75;4979924;28;60013;-65
2022/05/04 04:27:49;;;;;;;;;36.67;32.33;;;;;12.63;56.50;101587.63;4981053;28;67396;-65
2022/05/04 04:30:14;;;;;;;;;35.67;31.67;;;;;12.61;56.26;101576.19;4979235;28;64916;-65
2022/05/04 04:32:39;;;;;;;;;38.00;33.00;;;;;12.58;56.58;101574.50;4979768;28;57674;-65
2022/05/04 04:35:05;;;;;;;;;39.00;28.33;;;;;12.53;56.64;101579.19;4980335;28;45298;-65
2022/05/04 04:37:31;;;;;;;;;32.00;28.00;;;;;12.49;56.81;101580.25;4980172;28;45358;-65
2022/05/04 04:39:56;;;;;;;;;40.00;33.33;;;;;12.47;56.82;101582.13;4979535;28;52952;-65
2022/05/04 04:42:22;;;;;;;;;35.33;31.00;;;;;12.44;56.62;101585.81;4979617;28;57761;-65
2022/05/04 04:44:47;;;;;;;;;35.00;29.67;;;;;12.43;56.96;101588.56;4979457;28;62689;-65
2022/05/04 04:47:12;;;;;;;;;41.00;34.00;;;;;12.39;56.80;101587.81;4979367;28;64693;-65
2022/05/04 04:49:38;;;;;;;;;36.67;29.67;;;;;12.36;56.92;101585.31;4980350;28;45341;-65
2022/05/04 04:52:03;;;;;;;;;47.00;31.67;;;;;12.36;56.91;101586.16;4978908;28;61643;-65
2022/05/04 04:54:29;;;;;;;;;36.33;32.00;;;;;12.37;57.03;101587.91;4980184;28;45278;-65
2022/05/04 04:56:54;;;;;;;;;36.00;27.67;;;;;12.39;56.96;101594.00;4978907;28;64065;-65
2022/05/04 04:59:19;;;;;;;;;33.00;30.00;;;;;12.40;57.00;101595.75;4979319;28;62034;-65
2022/05/04 05:01:45;;;;;;;;;35.67;29.67;;;;;12.47;57.06;101595.47;4978902;28;59491;-65
2022/05/04 05:04:10;;;;;;;;;28.33;24.67;;;;;12.54;56.69;101591.56;4979484;28;61988;-65
2022/05/04 05:06:36;;;;;;;;;37.67;30.00;;;;;12.57;56.70;101597.66;4978794;28;66172;-65
2022/05/04 05:09:01;;;;;;;;;30.33;27.00;;;;;12.59;56.21;101597.56;4978758;28;65029;-65
2022/05/04 05:11:26;;;;;;;;;32.67;29.00;;;;;12.60;56.41;101593.13;4979153;28;52733;-65
2022/05/04 05:16:35;;;;;;;;;33.67;31.67;;;;;12.59;56.14;101600.25;4979829;28;45718;-65
2022/05/04 05:19:01;;;;;;;;;38.00;28.67;;;;;12.59;56.23;101597.56;4979194;28;45180;-65
2022/05/04 05:21:26;;;;;;;;;35.00;28.67;;;;;12.62;56.57;101605.47;4978655;28;58946;-65
2022/05/04 05:23:52;;;;;;;;;27.67;26.33;;;;;12.60;56.46;101601.97;4978663;28;62008;-65
2022/05/04 05:26:17;;;;;;;;;38.33;30.33;;;;;12.58;56.20;101602.06;4978329;28;45388;-65
2022/05/04 05:28:42;;;;;;;;;33.67;28.33;;;;;12.59;56.45;101597.56;4981461;28;61701;-65
2022/05/04 05:31:08;;;;;;;;;28.00;22.00;;;;;12.63;56.47;101595.63;4978856;28;59819;-65
2022/05/04 05:33:34;;;;;;;;;31.00;27.67;;;;;12.67;56.32;101603.44;4979665;28;45238;-65
2022/05/04 05:35:59;;;;;;;;;34.00;28.00;;;;;12.70;56.10;101608.63;4978347;28;65929;-65
2022/05/04 05:38:28;;;;;;;;;34.00;29.50;;;;;12.75;56.13;101611.09;4979397;28;45368;-65
2022/05/04 05:40:53;;;;;;;;;37.67;29.00;;;;;12.76;56.22;101614.63;4977540;28;60616;-65
2022/05/04 05:43:18;;;;;;;;;32.00;30.00;;;;;12.74;56.06;101615.56;4978249;28;62572;-65
2022/05/04 05:45:44;;;;;;;;;36.00;31.00;;;;;12.78;56.02;101618.97;4978221;28;64412;-65
2022/05/04 05:48:09;;;;;;;;;33.00;29.33;;;;;12.87;56.05;101615.00;4979310;28;45486;-65
2022/05/04 05:50:34;;;;;;;;;40.33;31.33;;;;;12.94;55.72;101616.44;4979686;28;45314;-65
2022/05/04 05:53:01;;;;;;;;;37.00;30.00;;;;;12.97;55.40;101613.63;4978326;28;45303;-65
2022/05/04 05:55:26;;;;;;;;;33.00;28.33;;;;;13.04;55.27;101612.38;4979039;28;45340;-65
2022/05/04 05:57:52;;;;;;;;;34.67;31.67;;;;;13.15;55.47;101619.03;4977614;28;63203;-65
2022/05/04 06:00:17;;;;;;;;;35.00;29.67;;;;;13.21;55.33;101616.06;4979371;28;45423;-65
2022/05/04 06:02:44;;;;;;;;;40.67;30.00;;;;;13.29;55.08;101629.91;4978950;28;45234;-65
2022/05/04 06:05:09;;;;;;;;;36.67;30.00;;;;;13.35;54.62;101621.59;4979071;28;46218;-65
2022/05/04 06:07:35;;;;;;;;;35.67;30.67;;;;;13.37;54.60;101621.56;4978851;28;45398;-65
2022/05/04 06:10:00;;;;;;;;;34.67;27.67;;;;;13.27;54.63;101618.44;4978156;28;55244;-65
2022/05/04 06:12:25;;;;;;;;;35.67;29.00;;;;;13.27;54.81;101622.91;4978346;28;52339;-65
2022/05/04 06:14:51;;;;;;;;;35.67;29.67;;;;;13.36;54.62;101617.13;4977584;28;65606;-65
2022/05/04 06:17:16;;;;;;;;;33.00;31.00;;;;;13.47;54.32;101624.66;4979189;28;45274;-65
2022/05/04 06:19:42;;;;;;;;;33.67;29.67;;;;;13.52;54.52;101623.47;4978466;28;45314;-65
2022/05/04 06:22:07;;;;;;;;;32.67;29.33;;;;;13.54;54.37;101628.75;4978497;28;45389;-65
2022/05/04 06:24:32;;;;;;;;;40.00;30.67;;;;;13.51;54.28;101631.59;4978782;28;46856;-65
2022/05/04 06:26:58;;;;;;;;;35.67;31.00;;;;;13.57;54.25;101642.84;4977672;28;45438;-65
2022/05/04 06:34:06;;;;;;;;;35.00;29.67;;;;;13.69;54.06;101638.69;4980665;28;59632;-65
2022/05/04 06:34:53;;;;;;;;;31.67;26.67;;;;;14.09;53.64;101638.47;4977727;28;45700;-66
2022/05/04 06:37:19;;;;;;;;;27.67;26.00;;;;;14.30;53.00;101641.84;4977202;28;45656;-65
2022/05/04 06:39:44;;;;;;;;;33.00;29.00;;;;;14.53;52.74;101642.44;4978079;28;54707;-65
2022/05/04 06:42:09;;;;;;;;;33.67;31.00;;;;;14.75;52.68;101639.50;4976644;28;60606;-64
2022/05/04 06:44:37;;;;;;;;;34.33;30.00;;;;;14.97;52.10;101639.19;4978646;28;46167;-64
2022/05/04 06:47:03;;;;;;;;;37.33;31.67;;;;;15.11;51.60;101634.88;4978045;28;45314;-64
2022/05/04 06:49:28;;;;;;;;;34.00;27.00;;;;;15.17;51.35;101634.53;4978448;28;45674;-64
2022/05/04 06:51:53;;;;;;;;;31.00;26.67;;;;;15.24;51.27;101627.88;4977684;28;61204;-64
2022/05/04 06:54:19;;;;;;;;;35.00;27.33;;;;;15.33;50.64;101622.00;4980714;28;67206;-64
2022/05/04 06:56:44;;;;;;;;;27.33;25.33;;;;;15.39;50.86;101623.44;4980750;28;56003;-64
2022/05/04 06:59:10;;;;;;;;;28.00;27.00;;;;;15.55;50.57;101626.09;4981911;28;45364;-64
2022/05/04 07:01:35;;;;;;;;;27.33;18.33;;;;;15.74;50.07;101625.06;4981224;28;57251;-64
2022/05/04 07:04:00;;;;;;;;;36.33;27.67;;;;;15.90;49.75;101622.34;4980656;28;62916;-64
2022/05/04 07:06:26;;;;;;;;;29.00;26.33;;;;;15.92;49.49;101631.16;4981372;28;45416;-64
2022/05/04 07:08:52;;;;;;;;;36.67;29.00;;;;;15.83;49.78;101643.31;4963933;28;45362;-64
2022/05/04 07:11:17;;;;;;;;;31.67;29.00;;;;;15.70;49.42;101635.94;4981004;28;45725;-64
2022/05/04 07:13:43;;;;;;;;;40.67;31.67;;;;;15.61;50.00;101638.31;4981258;28;46489;-64
2022/05/04 07:16:09;;;;;;;;;42.33;34.00;;;;;15.53;49.78;101641.44;4981465;28;45432;-64
2022/05/04 07:18:35;;;;;;;;;41.00;33.33;;;;;15.44;49.78;101636.59;4981830;28;45703;-64
2022/05/04 07:21:00;;;;;;;;;37.00;30.67;;;;;15.34;49.83;101644.28;4980668;28;46137;-64
2022/05/04 07:23:26;;;;;;;;;34.33;25.33;;;;;15.26;50.03;101634.00;4981419;28;45433;-63
2022/05/04 07:25:51;;;;;;;;;36.00;30.33;;;;;15.24;50.26;101632.34;4980184;28;59507;-63
2022/05/04 07:28:17;;;;;;;;;36.33;30.67;;;;;15.22;50.42;101632.44;4982935;28;56177;-63
2022/05/04 07:30:42;;;;;;;;;36.67;30.00;;;;;15.13;50.16;101649.06;4979810;28;59180;-62
2022/05/04 07:33:07;;;;;;;;;37.67;32.67;;;;;15.08;50.52;101654.66;4981011;28;49812;-63
2022/05/04 07:35:33;;;;;;;;;38.00;32.00;;;;;15.09;50.85;101651.03;4981031;28;45346;-63
2022/05/04 07:37:58;;;;;;;;;40.67;29.00;;;;;15.12;50.59;101656.25;4980307;28;60122;-63
2022/05/04 07:43:08;;;;;;;;;32.67;29.67;;;;;15.07;50.81;101657.41;4980848;28;45385;-63
2022/05/04 07:45:33;;;;;;;;;30.00;29.67;;;;;15.07;51.09;101660.97;4980866;28;45357;-63
2022/05/04 07:47:59;;;;;;;;;36.33;30.67;;;;;15.08;50.85;101662.69;4980052;28;60194;-63
2022/05/04 07:50:25;;;;;;;;;43.67;33.33;;;;;15.12;50.68;101658.03;4981094;28;45468;-63
2022/05/04 07:52:50;;;;;;;;;37.00;31.67;;;;;15.14;50.55;101664.19;4979663;28;47170;-63
2022/05/04 07:55:16;;;;;;;;;39.00;33.00;;;;;15.13;50.59;101662.44;4980795;28;45372;-63
2022/05/04 07:57:46;;;;;;;;;40.67;32.33;;;;;15.13;50.75;101659.78;4979733;28;56702;-63
2022/05/04 08:05:41;;;;;;;;;38.00;31.33;;;;;15.27;50.60;101664.38;4979546;28;45606;-63
2022/05/04 08:08:06;;;;;;;;;44.67;33.00;;;;;15.34;50.29;101657.69;4980549;28;45249;-63
2022/05/04 08:10:32;;;;;;;;;42.00;33.33;;;;;15.33;50.15;101659.53;4980946;28;45215;-63
2022/05/04 08:12:58;;;;;;;;;36.67;29.33;;;;;15.39;50.19;101652.94;4979821;28;46765;-63
2022/05/04 08:15:24;;;;;;;;;36.33;29.67;;;;;15.47;50.19;101649.81;4980687;28;45541;-63
2022/05/04 08:17:49;;;;;;;;;34.00;28.67;;;;;15.50;50.16;101661.25;4980071;28;45203;-63
2022/05/04 08:20:15;;;;;;;;;37.00;31.33;;;;;15.53;49.79;101654.84;4980323;28;45397;-63
2022/05/04 08:22:40;;;;;;;;;31.33;28.67;;;;;15.55;50.12;101666.31;4978944;28;66105;-63
2022/05/04 08:25:05;;;;;;;;;40.00;32.67;;;;;15.59;50.11;101670.59;4980109;28;53222;-63
2022/05/04 08:27:32;;;;;;;;;40.33;32.33;;;;;15.62;49.67;101680.22;4982578;28;45408;-63
2022/05/04 08:29:59;;;;;;;;;39.67;34.33;;;;;15.65;50.13;101680.09;4962535;28;45373;-63
2022/05/04 08:32:29;;;;;;;;;43.33;31.33;;;;;15.65;49.84;101680.94;4979815;28;46549;-64
2022/05/04 08:34:58;;;;;;;;;37.67;32.67;;;;;15.75;49.85;101680.41;4979787;28;45316;-63
2022/05/04 08:37:23;;;;;;;;;38.33;32.00;;;;;15.97;49.59;101672.88;4975783;28;45376;-63
2022/05/04 08:39:49;;;;;;;;;37.33;34.00;;;;;16.46;49.23;101676.25;4979628;28;45318;-63
2022/05/04 08:42:15;;;;;;;;;39.67;32.67;;;;;17.01;47.89;101678.22;4978841;28;70259;-63
2022/05/04 08:44:40;;;;;;;;;38.00;32.00;;;;;17.17;47.51;101678.09;4961099;28;45680;-63
2022/05/04 08:47:06;;;;;;;;;36.67;30.67;;;;;17.41;47.50;101676.63;4944507;28;45279;-63
2022/05/04 08:49:31;;;;;;;;;36.33;30.33;;;;;19.74;46.34;101678.44;4949305;28;45397;-63
2022/05/04 08:51:57;;;;;;;;;38.67;32.00;;;;;22.74;43.39;101670.47;4941902;28;61029;-63
2022/05/04 08:54:22;;;;;;;;;40.00;33.00;;;;;24.84;36.07;101664.75;4974800;28;63732;-63
2022/05/04 08:56:47;;;;;;;;;34.33;29.33;;;;;26.12;36.97;101667.50;4976660;28;58555;-63
2022/05/04 08:59:13;;;;;;;;;35.67;28.67;;;;;26.05;34.07;101667.28;4976638;28;47740;-63
2022/05/04 09:01:39;;;;;;;;;37.67;30.00;;;;;25.19;35.31;101673.19;4979531;28;45929;-63
2022/05/04 09:04:04;;;;;;;;;35.67;32.33;;;;;24.56;35.30;101670.13;4975727;28;45367;-63
2022/05/04 09:06:31;;;;;;;;;33.33;26.33;;;;;24.65;35.31;101667.53;4978236;28;45191;-63
2022/05/04 09:08:58;;;;;;;;;39.33;32.00;;;;;25.40;35.64;101671.06;4979608;28;45649;-63
2022/05/04 09:11:24;;;;;;;;;38.33;29.67;;;;;27.07;35.03;101662.09;4979019;28;45389;-63
2022/05/04 09:13:49;;;;;;;;;34.00;30.33;;;;;29.41;32.64;101673.59;4979306;28;45608;-63
2022/05/04 09:16:28;;;;;;;;;27.67;24.33;;;;;31.02;29.83;101666.94;4978497;28;45227;-63
2022/05/04 09:18:54;;;;;;;;;34.00;30.00;;;;;31.36;29.01;101678.38;4979238;28;46002;-63
2022/05/04 09:21:23;;;;;;;;;33.67;28.00;;;;;32.16;28.48;101676.44;4978782;28;56123;-64
2022/05/04 09:23:54;;;;;;;;;32.33;29.33;;;;;32.89;27.13;101675.25;4978765;28;45309;-64
2022/05/04 09:26:20;;;;;;;;;36.33;30.00;;;;;33.00;25.44;101673.84;4979425;28;45277;-64
2022/05/04 09:28:57;;;;;;;;;39.00;31.33;;;;;33.21;26.14;101674.78;4981644;28;45415;-64
2022/05/04 09:31:26;;;;;;;;;33.67;31.00;;;;;35.17;24.15;101675.38;4979277;28;45597;-64
2022/05/04 09:33:53;;;;;;;;;35.67;30.67;;;;;36.51;24.10;101677.19;4978567;28;45530;-63
2022/05/04 09:36:38;;;;;;;;;38.00;30.33;;;;;37.49;21.06;101673.66;4979383;28;45354;-64
2022/05/04 09:44:54;;;;;;;;;38.33;32.00;;;;;42.18;18.89;101659.34;4978716;28;45279;-64
2022/05/04 09:47:20;;;;;;;;;28.67;25.67;;;;;43.04;17.41;101668.44;4978733;28;59810;-64
2022/05/04 09:49:49;;;;;;;;;36.00;29.00;;;;;43.42;15.65;101660.72;4978868;28;45715;-64
2022/05/04 09:52:15;;;;;;;;;35.33;30.33;;;;;43.84;15.52;101655.16;4979322;28;45380;-64
2022/05/04 09:54:41;;;;;;;;;32.00;29.00;;;;;42.62;16.16;101658.19;4978202;28;45605;-64
2022/05/04 09:57:07;;;;;;;;;24.67;24.67;;;;;42.10;15.93;101657.91;4978905;28;45422;-64
2022/05/04 09:59:36;;;;;;;;;34.00;30.67;;;;;42.06;16.63;101659.56;4979088;28;45553;-64
2022/05/04 10:02:03;;;;;;;;;26.67;25.67;;;;;42.01;15.81;101658.66;4978040;28;46092;-64
2022/05/04 10:04:29;;;;;;;;;36.33;31.00;;;;;42.43;16.31;101655.06;4961909;28;45456;-64
2022/05/04 10:06:54;;;;;;;;;32.67;29.67;;;;;43.48;15.94;101650.34;4978748;28;45622;-64
2022/05/04 10:09:20;;;;;;;;;33.00;25.33;;;;;44.32;15.70;101654.78;4978549;28;58436;-64
2022/05/04 10:11:46;;;;;;;;;36.00;28.00;;;;;44.43;14.94;101648.03;4978103;28;46189;-64
2022/05/04 10:14:15;;;;;;;;;29.67;26.33;;;;;45.02;15.02;101652.00;4978768;28;45498;-64
2022/05/04 10:16:59;;;;;;;;;30.67;27.67;;;;;45.57;13.77;101653.91;4978524;28;45465;-63
2022/05/04 10:19:36;;;;;;;;;27.33;22.00;;;;;45.71;11.86;101656.84;4960242;28;45482;-63
2022/05/04 10:22:02;;;;;;;;;23.67;23.67;;;;;45.54;13.86;101654.47;4957590;28;47405;-65
2022/05/04 10:24:29;;;;;;;;;28.67;25.67;;;;;45.87;13.89;101649.94;4961508;28;45419;-65
2022/05/04 10:27:02;;;;;;;;;29.33;26.00;;;;;46.25;13.17;101652.09;4931724;28;45584;-65
2022/05/04 10:32:46;;;;;;;;;18.33;18.00;;;;;47.08;12.57;101654.72;4982052;28;45298;-64
2022/05/04 10:35:12;;;;;;;;;12.00;11.67;;;;;46.28;11.10;101651.53;4981822;28;45223;-64
2022/05/04 10:37:59;;;;;;;;;14.00;12.67;;;;;45.25;12.13;101658.84;4981966;28;45456;-64
2022/05/04 10:40:56;;;;;;;;;17.33;13.00;;;;;44.36;12.52;101661.53;4965751;28;45459;-64
2022/05/04 10:43:47;;;;;;;;;16.00;13.00;;;;;43.26;13.03;101659.84;4981533;28;45472;-65
2022/05/04 10:46:20;;;;;;;;;17.33;16.33;;;;;43.59;13.41;101654.88;4981886;28;45729;-64
2022/05/04 10:48:50;;;;;;;;;16.67;16.67;;;;;44.80;12.32;101665.56;4981671;28;45500;-65
2022/05/04 10:51:21;;;;;;;;;15.33;13.33;;;;;45.63;11.97;101666.72;4981929;28;45501;-65
2022/05/04 10:53:53;;;;;;;;;14.33;14.00;;;;;46.19;12.00;101659.72;4980915;28;47024;-66
2022/05/04 10:56:26;;;;;;;;;12.00;12.00;;;;;46.36;11.77;101662.13;4963876;28;45289;-64
2022/05/04 10:58:54;;;;;;;;;9.33;9.33;;;;;46.48;11.04;101667.31;4981729;28;45341;-65
2022/05/04 11:01:25;;;;;;;;;11.33;10.00;;;;;45.93;11.98;101656.38;4981631;28;45668;-64
2022/05/04 11:03:55;;;;;;;;;10.67;9.33;;;;;45.20;11.44;101664.53;4974200;28;47018;-65
2022/05/04 11:06:35;;;;;;;;;14.33;12.67;;;;;44.68;11.62;101654.66;4978179;28;45372;-64
2022/05/04 11:09:07;;;;;;;;;12.00;10.67;;;;;44.63;11.16;101661.16;4981381;28;45403;-64
2022/05/04 11:11:33;;;;;;;;;13.67;11.33;;;;;44.24;11.81;101648.63;4981467;28;45294;-64
2022/05/04 11:13:58;;;;;;;;;12.33;12.33;;;;;43.36;12.27;101645.03;4980685;28;45299;-64
2022/05/04 11:16:25;;;;;;;;;14.00;14.00;;;;;42.35;12.26;101639.66;4980462;28;64807;-64
2022/05/04 11:18:50;;;;;;;;;15.33;13.00;;;;;41.16;12.69;101641.44;4981094;28;45463;-64
2022/05/04 11:21:16;;;;;;;;;13.67;11.33;;;;;40.54;13.49;101644.59;4980515;28;57780;-64
2022/05/04 11:23:46;;;;;;;;;9.00;8.00;;;;;40.17;13.64;101634.88;4963152;28;46534;-64
2022/05/04 11:26:22;;;;;;;;;9.67;8.00;;;;;40.21;13.66;101633.25;4980899;28;45267;-64
2022/05/04 11:28:49;;;;;;;;;8.50;8.00;;;;;39.98;12.67;101637.03;4983802;28;45421;-64
2022/05/04 11:31:14;;;;;;;;;8.50;6.50;;;;;39.57;14.14;101628.84;4980801;28;45160;-64
2022/05/04 11:33:41;;;;;;;;;11.25;10.00;;;;;39.27;14.62;101629.13;4980411;28;46943;-65
2022/05/04 11:36:07;;;;;;;;;8.75;8.25;;;;;38.92;14.60;101633.75;4981354;28;45267;-65
2022/05/04 11:38:33;;;;;;;;;7.00;7.00;;;;;38.22;15.30;101635.53;4979434;28;59887;-65